Rescue Gideon — LF3941 — position and weather

sailwx.info

Track history (hours):
 
Tides and Currents Weather Stations Pressure Air Temp Water Temp Dewpoint Dewpoint Depression Visibility Wind Speed Wind Dir Waves Ship Positions

Rescue Gideon

Last reported at 2016-Nov-30 13:33 UTC. Time now 2016-Dec-09 09:50 UTC.
Position N 69°42' E 019°01'.
Warning: this ship's position is 8 days out of date.

Length 13 m; draft 1 m.

Type: SAR. MMSI: 257904900.

Date/timePositionNaut miles runAvg speedWind from/ knotsBaromVisibWave heightAir tempDewpointWater temp
2016-Nov-30 13:33N 69°42' E 019°01'0 0.0
2016-Nov-30 12:33N 69°42' E 019°01'3 3.0
2016-Nov-30 11:33N 69°39' E 018°58'0 0.0
2016-Nov-30 10:32N 69°39' E 018°58'0 0.0
2016-Nov-30 09:30N 69°39' E 018°58'0 0.0
2016-Nov-30 08:32N 69°39' E 018°58'0 0.0
2016-Nov-30 07:32N 69°39' E 018°58'0 0.0
2016-Nov-30 06:32N 69°39' E 018°58'0 0.0
2016-Nov-30 05:32N 69°39' E 018°58'0 0.0
2016-Nov-30 04:30N 69°39' E 018°58'0 0.0
2016-Nov-30 03:33N 69°39' E 018°58'0 0.0
2016-Nov-30 02:33N 69°39' E 018°58'0 0.0
2016-Nov-30 01:32N 69°39' E 018°58'0 0.0
2016-Nov-30 00:33N 69°39' E 018°58'0 0.0
2016-Nov-29 23:31N 69°39' E 018°58'0 0.0
2016-Nov-29 22:30N 69°39' E 018°58'0 0.0
2016-Nov-29 21:33N 69°39' E 018°58'0 0.0
2016-Nov-29 20:31N 69°39' E 018°58'0 0.0
2016-Nov-29 19:31N 69°39' E 018°58'0 0.0
2016-Nov-29 18:31N 69°39' E 018°58'0 0.0
2016-Nov-29 17:30N 69°39' E 018°58'0 0.0
2016-Nov-29 16:33N 69°39' E 018°58'0 0.0
2016-Nov-29 15:31N 69°39' E 018°58'0 0.0
2016-Nov-29 14:33N 69°39' E 018°58'1515.2
2016-Nov-29 13:33N 69°51' E 019°24'1211.9
2016-Nov-29 12:33N 70°02' E 019°39'1515.3
2016-Nov-29 11:33N 70°02' E 018°54'9 8.9
2016-Nov-29 10:33N 69°54' E 018°45'1313.4
2016-Nov-29 09:33N 69°42' E 019°01'3 2.9
2016-Nov-29 08:33N 69°39' E 018°58'0 0.0
2016-Nov-29 07:31N 69°39' E 018°58'0 0.0
2016-Nov-29 06:33N 69°39' E 018°58'0 0.0
2016-Nov-29 05:32N 69°39' E 018°58'0 0.0
2016-Nov-29 04:33N 69°39' E 018°58'0 0.0
2016-Nov-29 03:34N 69°39' E 018°58'0 0.0
2016-Nov-29 02:30N 69°39' E 018°58'0 0.0
2016-Nov-29 01:31N 69°39' E 018°58'0 0.0
2016-Nov-29 00:33N 69°39' E 018°58'0 0.0
2016-Nov-28 23:32N 69°39' E 018°58'0 0.0
2016-Nov-28 22:33N 69°39' E 018°58'0 0.0
2016-Nov-28 21:32N 69°39' E 018°58'0 0.0
2016-Nov-28 20:33N 69°39' E 018°58'0 0.0
2016-Nov-28 19:32N 69°39' E 018°58'0 0.0
2016-Nov-28 18:33N 69°39' E 018°58'0 0.0
2016-Nov-28 17:33N 69°39' E 018°58'0 0.0
2016-Nov-28 16:30N 69°39' E 018°58'0 0.0
2016-Nov-28 15:32N 69°39' E 018°58'0 0.0
2016-Nov-28 14:33N 69°39' E 018°58'0 0.0
2016-Nov-28 13:31N 69°39' E 018°58'0 0.0
2016-Nov-28 12:31N 69°39' E 018°58'0 0.0
2016-Nov-28 11:32N 69°39' E 018°58'0 0.0
2016-Nov-28 10:33N 69°39' E 018°58'0 0.0
2016-Nov-28 09:33N 69°39' E 018°58'0 0.0
2016-Nov-28 08:32N 69°39' E 018°58'0 0.0
2016-Nov-28 07:33N 69°39' E 018°58'0 0.0
2016-Nov-28 06:30N 69°39' E 018°58'0 0.0
2016-Nov-28 05:32N 69°39' E 018°58'1 1.0
2016-Nov-28 04:33N 69°40' E 018°59'1 1.0
2016-Nov-28 03:32N 69°39' E 018°58'0 0.0
2016-Nov-28 02:33N 69°39' E 018°58'0 0.0
2016-Nov-28 01:30N 69°39' E 018°58'0 0.0
2016-Nov-28 00:33N 69°39' E 018°58'0 0.0
2016-Nov-27 23:32N 69°39' E 018°58'1 0.9
2016-Nov-27 22:33N 69°38' E 018°57'1 0.8
2016-Nov-27 21:31N 69°39' E 018°58'0 0.0
2016-Nov-27 20:33N 69°39' E 018°58'0 0.0
2016-Nov-27 19:32N 69°39' E 018°58'0 0.0
2016-Nov-27 18:32N 69°39' E 018°58'0 0.0
2016-Nov-27 17:32N 69°39' E 018°58'0 0.0
2016-Nov-27 16:32N 69°39' E 018°58'0 0.0
2016-Nov-27 15:32N 69°39' E 018°58'0 0.0
2016-Nov-27 14:32N 69°39' E 018°58'0 0.0
2016-Nov-27 13:31N 69°39' E 018°58'0 0.0
2016-Nov-27 12:32N 69°39' E 018°58'0 0.0
2016-Nov-27 11:33N 69°39' E 018°58'0 0.0
2016-Nov-27 10:33N 69°39' E 018°58'0 0.0
2016-Nov-27 09:30N 69°39' E 018°58'0 0.0
2016-Nov-27 08:33N 69°39' E 018°58'0 0.0
2016-Nov-27 07:31N 69°39' E 018°58'0 0.0
2016-Nov-27 06:32N 69°39' E 018°58'0 0.0
2016-Nov-27 05:33N 69°39' E 018°58'0 0.0
2016-Nov-27 04:32N 69°39' E 018°58'0 0.0
2016-Nov-27 03:33N 69°39' E 018°58'0 0.0
2016-Nov-27 02:31N 69°39' E 018°58'0 0.0
2016-Nov-27 01:31N 69°39' E 018°58'0 0.0
2016-Nov-27 00:33N 69°39' E 018°58'0 0.0
2016-Nov-26 23:32N 69°39' E 018°58'0 0.0
2016-Nov-26 22:30N 69°39' E 018°58'0 0.0
2016-Nov-26 21:34N 69°39' E 018°58'2 2.4
2016-Nov-26 20:33N 69°41' E 019°01'1 1.0
2016-Nov-26 19:32N 69°40' E 019°01'1 1.4
2016-Nov-26 18:32N 69°39' E 018°58'0 0.1
2016-Nov-26 17:31N 69°39' E 018°58'0 0.0
2016-Nov-26 16:31N 69°39' E 018°58'0 0.0
2016-Nov-26 15:31N 69°39' E 018°58'0 0.0
2016-Nov-26 14:29N 69°39' E 018°58'0 0.0
2016-Nov-26 13:30N 69°39' E 018°58'0 0.0
2016-Nov-26 12:32N 69°39' E 018°58'0 0.0
2016-Nov-26 11:30N 69°39' E 018°58'0 0.0
2016-Nov-26 10:33N 69°39' E 018°58'0 0.0
2016-Nov-26 09:32N 69°39' E 018°58'0 0.0
2016-Nov-26 08:33N 69°39' E 018°58'0 0.0
2016-Nov-26 07:31N 69°39' E 018°58'0 0.0
2016-Nov-26 06:33N 69°39' E 018°58'0 0.0
2016-Nov-26 05:33N 69°39' E 018°58'0 0.0
2016-Nov-26 04:30N 69°39' E 018°58'0 0.0
2016-Nov-26 03:32N 69°39' E 018°58'0 0.0
2016-Nov-26 02:32N 69°39' E 018°58'0 0.0
2016-Nov-26 01:33N 69°39' E 018°58'0 0.0
2016-Nov-26 00:32N 69°39' E 018°58'0 0.0
2016-Nov-25 23:32N 69°39' E 018°58'0 0.0
2016-Nov-25 22:33N 69°39' E 018°58'0 0.0
2016-Nov-25 21:33N 69°39' E 018°58'0 0.0
2016-Nov-25 20:32N 69°39' E 018°58'0 0.0
2016-Nov-25 19:33N 69°39' E 018°58'0 0.0
2016-Nov-25 18:32N 69°39' E 018°58'0 0.0
2016-Nov-25 17:31N 69°39' E 018°58'0 0.0
2016-Nov-25 16:33N 69°39' E 018°58'  
Track history (hours):
 
Tides and Currents Weather Stations Pressure Air Temp Water Temp Dewpoint Dewpoint Depression Visibility Wind Speed Wind Dir Waves Ship Positions

Rescue Gideon

Last reported at 2016-Nov-30 13:33 UTC. Time now 2016-Dec-09 09:50 UTC.
Position N 69°42' E 019°01'.
Warning: this ship's position is 8 days out of date.

Length 13 m; draft 1 m.

Type: SAR. MMSI: 257904900.

Date/timePositionNaut miles runAvg speedWind from/ knotsBaromVisibWave heightAir tempDewpointWater temp
2016-Nov-30 13:33N 69°42' E 019°01'0 0.0
2016-Nov-30 12:33N 69°42' E 019°01'3 3.0
2016-Nov-30 11:33N 69°39' E 018°58'0 0.0
2016-Nov-30 10:32N 69°39' E 018°58'0 0.0
2016-Nov-30 09:30N 69°39' E 018°58'0 0.0
2016-Nov-30 08:32N 69°39' E 018°58'0 0.0
2016-Nov-30 07:32N 69°39' E 018°58'0 0.0
2016-Nov-30 06:32N 69°39' E 018°58'0 0.0
2016-Nov-30 05:32N 69°39' E 018°58'0 0.0
2016-Nov-30 04:30N 69°39' E 018°58'0 0.0
2016-Nov-30 03:33N 69°39' E 018°58'0 0.0
2016-Nov-30 02:33N 69°39' E 018°58'0 0.0
2016-Nov-30 01:32N 69°39' E 018°58'0 0.0
2016-Nov-30 00:33N 69°39' E 018°58'0 0.0
2016-Nov-29 23:31N 69°39' E 018°58'0 0.0
2016-Nov-29 22:30N 69°39' E 018°58'0 0.0
2016-Nov-29 21:33N 69°39' E 018°58'0 0.0
2016-Nov-29 20:31N 69°39' E 018°58'0 0.0
2016-Nov-29 19:31N 69°39' E 018°58'0 0.0
2016-Nov-29 18:31N 69°39' E 018°58'0 0.0
2016-Nov-29 17:30N 69°39' E 018°58'0 0.0
2016-Nov-29 16:33N 69°39' E 018°58'0 0.0
2016-Nov-29 15:31N 69°39' E 018°58'0 0.0
2016-Nov-29 14:33N 69°39' E 018°58'1515.2
2016-Nov-29 13:33N 69°51' E 019°24'1211.9
2016-Nov-29 12:33N 70°02' E 019°39'1515.3
2016-Nov-29 11:33N 70°02' E 018°54'9 8.9
2016-Nov-29 10:33N 69°54' E 018°45'1313.4
2016-Nov-29 09:33N 69°42' E 019°01'3 2.9
2016-Nov-29 08:33N 69°39' E 018°58'0 0.0
2016-Nov-29 07:31N 69°39' E 018°58'0 0.0
2016-Nov-29 06:33N 69°39' E 018°58'0 0.0
2016-Nov-29 05:32N 69°39' E 018°58'0 0.0
2016-Nov-29 04:33N 69°39' E 018°58'0 0.0
2016-Nov-29 03:34N 69°39' E 018°58'0 0.0
2016-Nov-29 02:30N 69°39' E 018°58'0 0.0
2016-Nov-29 01:31N 69°39' E 018°58'0 0.0
2016-Nov-29 00:33N 69°39' E 018°58'0 0.0
2016-Nov-28 23:32N 69°39' E 018°58'0 0.0
2016-Nov-28 22:33N 69°39' E 018°58'0 0.0
2016-Nov-28 21:32N 69°39' E 018°58'0 0.0
2016-Nov-28 20:33N 69°39' E 018°58'0 0.0
2016-Nov-28 19:32N 69°39' E 018°58'0 0.0
2016-Nov-28 18:33N 69°39' E 018°58'0 0.0
2016-Nov-28 17:33N 69°39' E 018°58'0 0.0
2016-Nov-28 16:30N 69°39' E 018°58'0 0.0
2016-Nov-28 15:32N 69°39' E 018°58'0 0.0
2016-Nov-28 14:33N 69°39' E 018°58'0 0.0
2016-Nov-28 13:31N 69°39' E 018°58'0 0.0
2016-Nov-28 12:31N 69°39' E 018°58'0 0.0
2016-Nov-28 11:32N 69°39' E 018°58'0 0.0
2016-Nov-28 10:33N 69°39' E 018°58'0 0.0
2016-Nov-28 09:33N 69°39' E 018°58'0 0.0
2016-Nov-28 08:32N 69°39' E 018°58'0 0.0
2016-Nov-28 07:33N 69°39' E 018°58'0 0.0
2016-Nov-28 06:30N 69°39' E 018°58'0 0.0
2016-Nov-28 05:32N 69°39' E 018°58'1 1.0
2016-Nov-28 04:33N 69°40' E 018°59'1 1.0
2016-Nov-28 03:32N 69°39' E 018°58'0 0.0
2016-Nov-28 02:33N 69°39' E 018°58'0 0.0
2016-Nov-28 01:30N 69°39' E 018°58'0 0.0
2016-Nov-28 00:33N 69°39' E 018°58'0 0.0
2016-Nov-27 23:32N 69°39' E 018°58'1 0.9
2016-Nov-27 22:33N 69°38' E 018°57'1 0.8
2016-Nov-27 21:31N 69°39' E 018°58'0 0.0
2016-Nov-27 20:33N 69°39' E 018°58'0 0.0
2016-Nov-27 19:32N 69°39' E 018°58'0 0.0
2016-Nov-27 18:32N 69°39' E 018°58'0 0.0
2016-Nov-27 17:32N 69°39' E 018°58'0 0.0
2016-Nov-27 16:32N 69°39' E 018°58'0 0.0
2016-Nov-27 15:32N 69°39' E 018°58'0 0.0
2016-Nov-27 14:32N 69°39' E 018°58'0 0.0
2016-Nov-27 13:31N 69°39' E 018°58'0 0.0
2016-Nov-27 12:32N 69°39' E 018°58'0 0.0
2016-Nov-27 11:33N 69°39' E 018°58'0 0.0
2016-Nov-27 10:33N 69°39' E 018°58'0 0.0
2016-Nov-27 09:30N 69°39' E 018°58'0 0.0
2016-Nov-27 08:33N 69°39' E 018°58'0 0.0
2016-Nov-27 07:31N 69°39' E 018°58'0 0.0
2016-Nov-27 06:32N 69°39' E 018°58'0 0.0
2016-Nov-27 05:33N 69°39' E 018°58'0 0.0
2016-Nov-27 04:32N 69°39' E 018°58'0 0.0
2016-Nov-27 03:33N 69°39' E 018°58'0 0.0
2016-Nov-27 02:31N 69°39' E 018°58'0 0.0
2016-Nov-27 01:31N 69°39' E 018°58'0 0.0
2016-Nov-27 00:33N 69°39' E 018°58'0 0.0
2016-Nov-26 23:32N 69°39' E 018°58'0 0.0
2016-Nov-26 22:30N 69°39' E 018°58'0 0.0
2016-Nov-26 21:34N 69°39' E 018°58'2 2.4
2016-Nov-26 20:33N 69°41' E 019°01'1 1.0
2016-Nov-26 19:32N 69°40' E 019°01'1 1.4
2016-Nov-26 18:32N 69°39' E 018°58'0 0.1
2016-Nov-26 17:31N 69°39' E 018°58'0 0.0
2016-Nov-26 16:31N 69°39' E 018°58'0 0.0
2016-Nov-26 15:31N 69°39' E 018°58'0 0.0
2016-Nov-26 14:29N 69°39' E 018°58'0 0.0
2016-Nov-26 13:30N 69°39' E 018°58'0 0.0
2016-Nov-26 12:32N 69°39' E 018°58'0 0.0
2016-Nov-26 11:30N 69°39' E 018°58'0 0.0
2016-Nov-26 10:33N 69°39' E 018°58'0 0.0
2016-Nov-26 09:32N 69°39' E 018°58'0 0.0
2016-Nov-26 08:33N 69°39' E 018°58'0 0.0
2016-Nov-26 07:31N 69°39' E 018°58'0 0.0
2016-Nov-26 06:33N 69°39' E 018°58'0 0.0
2016-Nov-26 05:33N 69°39' E 018°58'0 0.0
2016-Nov-26 04:30N 69°39' E 018°58'0 0.0
2016-Nov-26 03:32N 69°39' E 018°58'0 0.0
2016-Nov-26 02:32N 69°39' E 018°58'0 0.0
2016-Nov-26 01:33N 69°39' E 018°58'0 0.0
2016-Nov-26 00:32N 69°39' E 018°58'0 0.0
2016-Nov-25 23:32N 69°39' E 018°58'0 0.0
2016-Nov-25 22:33N 69°39' E 018°58'0 0.0
2016-Nov-25 21:33N 69°39' E 018°58'0 0.0
2016-Nov-25 20:32N 69°39' E 018°58'0 0.0
2016-Nov-25 19:33N 69°39' E 018°58'0 0.0
2016-Nov-25 18:32N 69°39' E 018°58'0 0.0
2016-Nov-25 17:31N 69°39' E 018°58'0 0.0
2016-Nov-25 16:33N 69°39' E 018°58'  

Dump ship's entire track history